Hovedside
METAR-TAF:

METAR-TAF

Lufthavner :

Wallis, Frankrike

breddegrad: 13-14S, lengdegrad: 176-10W, høyde over havet: 23 m

METAR: fraværende

Tid: 21:25 (09:25 UTC)

Varsel

Denne rapporten ble laget for 4 timer og 25 minutter siden, klokken 05:00 UTC
Varsel gyldig fra 19. klokken 06 UTC til 20. klokken 06 UTC
Vind 6 kt fra Sørøst
Sikt 10 km eller mer
Spredte skyer i en høyde av 2000 ft
Sannsynlighet 30% :
Midlertidig
fra 19. klokken 12 UTC til 19. klokken 18 UTC
regnbyger

TAF: NLWW 190500Z 1906/2006 13006KT 9999 SCT020 PROB30 TEMPO 1912/1918 SHRA

Værobservasjoner og værvarsel for over 4000 flyplasser (METAR- og TAF-rapporter).

Tilgjengelige stasjoner er representert av de røde og gule prikkene på kartet.

Hold musepekeren over prikken for å se navnet på stasjonen.

Klikk så for å se værobservasjoner og -varsler.

For å forandre kartet kan du klikke på den grønne knappen med svart kryss for å zoome inn, på den grønne knappen med strek for å zoome ut, eller på de grønne pilene for å se tilstøtende kart.


METAR-TAF: